createdAt,value
2019-05-29T00:00:16.185Z,15.00
2019-05-29T00:02:45.168Z,14.70
2019-05-29T00:05:14.322Z,15.27
2019-05-29T00:07:44.409Z,15.80
2019-05-29T00:10:16.107Z,15.07
2019-05-29T00:12:45.035Z,15.00
2019-05-29T00:15:14.565Z,20.67
2019-05-29T00:17:43.595Z,14.83
2019-05-29T00:20:12.609Z,17.13
2019-05-29T00:22:41.511Z,16.63
2019-05-29T00:25:10.633Z,18.27
2019-05-29T00:27:39.616Z,18.97
2019-05-29T00:30:09.161Z,19.47
2019-05-29T00:32:38.525Z,19.80
2019-05-29T00:35:08.240Z,16.87
2019-05-29T00:37:37.604Z,15.17
2019-05-29T00:40:06.818Z,19.03
2019-05-29T00:42:35.779Z,15.10
2019-05-29T00:45:07.299Z,20.13
2019-05-29T00:47:35.781Z,17.17
2019-05-29T00:50:05.272Z,18.00
2019-05-29T00:52:34.265Z,16.00
2019-05-29T00:55:03.172Z,17.33
2019-05-29T00:57:32.113Z,16.83
2019-05-29T01:00:03.293Z,18.07
2019-05-29T01:02:32.292Z,18.57
2019-05-29T01:05:01.220Z,24.53
2019-05-29T01:07:30.438Z,21.03
2019-05-29T01:09:59.351Z,19.57
2019-05-29T01:12:28.188Z,20.80
2019-05-29T01:14:57.220Z,20.40
2019-05-29T01:17:26.247Z,19.07
2019-05-29T01:19:55.269Z,15.87
2019-05-29T01:22:27.556Z,19.57
2019-05-29T01:24:56.597Z,19.20
2019-05-29T01:27:25.480Z,23.17
2019-05-29T01:29:54.409Z,20.83
2019-05-29T01:32:23.751Z,19.07
2019-05-29T01:34:52.895Z,23.73
2019-05-29T01:37:22.344Z,19.13
2019-05-29T01:39:51.477Z,21.37
2019-05-29T01:42:21.484Z,19.93
2019-05-29T01:45:06.331Z,18.67
2019-05-29T01:47:21.549Z,29.23
2019-05-29T01:49:50.672Z,25.57
2019-05-29T01:52:19.713Z,19.97
2019-05-29T01:54:48.607Z,22.07
2019-05-29T01:57:19.696Z,21.63
2019-05-29T01:59:49.413Z,21.00
2019-05-29T02:02:19.788Z,20.20
2019-05-29T02:04:48.842Z,23.57
2019-05-29T02:07:17.973Z,30.20
2019-05-29T02:09:46.898Z,26.37
2019-05-29T02:12:16.279Z,24.60
2019-05-29T02:14:45.307Z,20.03
2019-05-29T02:17:15.499Z,21.67
2019-05-29T02:19:44.740Z,24.77
2019-05-29T02:22:14.834Z,22.33
2019-05-29T02:24:43.694Z,24.63
2019-05-29T02:27:14.915Z,22.50
2019-05-29T02:29:43.893Z,23.10
2019-05-29T02:32:12.959Z,26.10
2019-05-29T02:34:41.875Z,25.20
2019-05-29T02:37:11.279Z,23.80
2019-05-29T02:39:40.146Z,27.30
2019-05-29T02:42:10.869Z,29.63
2019-05-29T02:44:39.827Z,28.03
2019-05-29T02:47:08.794Z,23.97
2019-05-29T02:49:37.818Z,27.40
2019-05-29T02:52:09.011Z,27.13
2019-05-29T02:54:37.973Z,25.33
2019-05-29T02:57:06.915Z,26.10
2019-05-29T02:59:35.868Z,23.70
2019-05-29T03:02:04.869Z,22.43
2019-05-29T03:04:33.810Z,25.40
2019-05-29T03:07:03.134Z,22.73
2019-05-29T03:09:32.696Z,19.93
2019-05-29T03:12:01.805Z,22.90
2019-05-29T03:14:31.889Z,21.33
2019-05-29T03:17:01.405Z,17.97
2019-05-29T03:19:30.511Z,20.23
2019-05-29T03:22:00.784Z,19.20
2019-05-29T03:24:30.841Z,15.73
2019-05-29T03:27:00.346Z,17.80
2019-05-29T03:29:29.994Z,19.40
2019-05-29T03:31:59.164Z,21.20
2019-05-29T03:34:33.716Z,21.20
2019-05-29T03:36:58.918Z,16.20
2019-05-29T03:39:32.336Z,18.33
2019-05-29T03:42:04.852Z,16.70
2019-05-29T03:44:35.323Z,17.43
2019-05-29T03:47:04.333Z,12.60
2019-05-29T03:49:35.202Z,16.73
2019-05-29T03:52:04.449Z,16.57
2019-05-29T03:54:35.336Z,15.33
2019-05-29T03:57:04.074Z,12.83
2019-05-29T03:59:35.118Z,11.30
2019-05-29T04:02:06.511Z,12.97
2019-05-29T04:04:38.278Z,9.97
2019-05-29T04:07:06.454Z,20.63
2019-05-29T04:09:37.231Z,11.23
2019-05-29T04:12:06.388Z,11.77
2019-05-29T04:14:35.932Z,11.20
2019-05-29T04:17:07.098Z,9.07
2019-05-29T04:19:36.911Z,8.97
2019-05-29T04:22:09.938Z,12.63
2019-05-29T04:24:39.771Z,6.87
2019-05-29T04:27:11.795Z,7.20
2019-05-29T04:29:43.574Z,12.10
2019-05-29T04:32:12.702Z,9.03
2019-05-29T04:34:41.705Z,9.00
2019-05-29T04:37:14.001Z,7.43
2019-05-29T04:39:42.917Z,10.80
2019-05-29T04:42:11.841Z,8.33
2019-05-29T04:44:41.270Z,9.93
2019-05-29T04:47:12.116Z,9.03
2019-05-29T04:49:44.169Z,10.00
2019-05-29T04:52:13.157Z,10.07
2019-05-29T04:54:42.174Z,8.57
2019-05-29T04:57:11.227Z,10.10
2019-05-29T04:59:40.175Z,8.43
2019-05-29T05:02:09.233Z,8.53
2019-05-29T05:04:39.324Z,9.00
2019-05-29T05:07:08.297Z,8.20
2019-05-29T05:09:37.531Z,8.40
2019-05-29T05:12:06.598Z,6.40
2019-05-29T05:14:35.704Z,7.27
2019-05-29T05:17:04.612Z,7.00
2019-05-29T05:19:33.917Z,7.10
2019-05-29T05:22:04.068Z,9.60
2019-05-29T05:24:34.096Z,10.67
2019-05-29T05:27:03.214Z,8.77
2019-05-29T05:29:32.261Z,6.80
2019-05-29T05:32:02.872Z,5.57
2019-05-29T05:34:34.909Z,9.83
2019-05-29T05:37:04.068Z,6.27
2019-05-29T05:39:33.011Z,9.53
2019-05-29T05:42:09.651Z,8.60
2019-05-29T05:44:39.092Z,6.97
2019-05-29T05:47:09.475Z,7.73
2019-05-29T05:49:42.160Z,7.93
2019-05-29T05:52:11.044Z,7.23
2019-05-29T05:54:39.953Z,8.30
2019-05-29T05:57:08.972Z,3.97
2019-05-29T05:59:37.869Z,9.17
2019-05-29T06:02:06.751Z,9.53
2019-05-29T06:04:39.930Z,8.97
2019-05-29T06:07:08.963Z,7.37
2019-05-29T06:09:38.213Z,4.60
2019-05-29T06:12:07.148Z,9.13
2019-05-29T06:14:36.520Z,6.60
2019-05-29T06:17:07.728Z,9.30
2019-05-29T06:19:39.049Z,6.07
2019-05-29T06:22:08.287Z,8.40
2019-05-29T06:24:37.263Z,8.60
2019-05-29T06:27:06.114Z,6.57
2019-05-29T06:29:35.252Z,6.67
2019-05-29T06:32:04.485Z,6.70
2019-05-29T06:34:33.526Z,10.70
2019-05-29T06:37:02.863Z,7.13
2019-05-29T06:39:33.513Z,7.97
2019-05-29T06:42:02.351Z,9.77
2019-05-29T06:44:36.606Z,6.93
2019-05-29T06:47:05.615Z,6.67
2019-05-29T06:49:34.522Z,7.23
2019-05-29T06:52:03.518Z,8.30
2019-05-29T06:54:35.727Z,9.17
2019-05-29T06:57:05.016Z,4.83
2019-05-29T06:59:33.956Z,8.60
2019-05-29T07:02:02.901Z,5.10
2019-05-29T07:04:34.949Z,7.13
2019-05-29T07:07:09.611Z,9.53
2019-05-29T07:09:38.861Z,4.63
2019-05-29T07:12:07.785Z,4.77
2019-05-29T07:14:36.834Z,7.23
2019-05-29T07:17:05.957Z,10.27
2019-05-29T07:19:49.088Z,4.67
2019-05-29T07:22:15.440Z,4.80
2019-05-29T07:24:47.022Z,7.37
2019-05-29T07:27:16.135Z,7.10
2019-05-29T07:29:45.266Z,7.77
2019-05-29T07:32:14.266Z,6.20
2019-05-29T07:34:56.761Z,11.13
2019-05-29T07:37:14.264Z,4.17
2019-05-29T07:39:47.671Z,5.20
2019-05-29T07:42:19.196Z,5.83
2019-05-29T07:44:48.249Z,8.77
2019-05-29T07:47:18.373Z,4.03
2019-05-29T07:49:50.341Z,5.13
2019-05-29T07:52:17.959Z,6.60
2019-05-29T07:54:48.027Z,6.70
2019-05-29T07:57:17.259Z,6.33
2019-05-29T07:59:46.755Z,7.93
2019-05-29T08:02:15.789Z,3.93
2019-05-29T08:04:45.282Z,5.17
2019-05-29T08:07:14.173Z,7.33
2019-05-29T08:09:43.635Z,7.83
2019-05-29T08:12:13.227Z,5.87
2019-05-29T08:14:42.213Z,4.90
2019-05-29T08:17:11.351Z,5.03
2019-05-29T08:19:59.307Z,5.67
2019-05-29T08:22:14.269Z,4.13
2019-05-29T08:24:45.849Z,6.30
2019-05-29T08:27:14.083Z,3.53
2019-05-29T08:29:43.110Z,5.03
2019-05-29T08:32:15.261Z,7.50
2019-05-29T08:34:49.590Z,5.17
2019-05-29T08:37:18.773Z,4.30
2019-05-29T08:39:47.692Z,7.97
2019-05-29T08:42:23.293Z,4.30
2019-05-29T08:44:47.736Z,4.03
2019-05-29T08:47:16.618Z,4.63
2019-05-29T08:49:48.018Z,4.30
2019-05-29T08:52:16.286Z,6.50
2019-05-29T08:54:48.737Z,6.87
2019-05-29T08:57:17.578Z,4.77
2019-05-29T08:59:46.492Z,4.57
2019-05-29T09:02:15.753Z,6.93
2019-05-29T09:04:44.734Z,3.77
2019-05-29T09:07:13.837Z,5.00
2019-05-29T09:09:42.980Z,3.70
2019-05-29T09:12:11.953Z,3.37
2019-05-29T09:14:43.755Z,5.03
2019-05-29T09:17:14.458Z,4.03
2019-05-29T09:19:43.258Z,4.83
2019-05-29T09:22:13.379Z,6.53
2019-05-29T09:24:42.924Z,6.13
2019-05-29T09:27:16.989Z,5.43
2019-05-29T09:29:46.478Z,2.97
2019-05-29T09:32:16.620Z,4.83
2019-05-29T09:34:47.703Z,4.60
2019-05-29T09:37:17.329Z,3.70
2019-05-29T09:39:47.357Z,2.83
2019-05-29T09:42:23.760Z,5.17
2019-05-29T09:44:53.066Z,2.97
2019-05-29T09:47:26.234Z,5.57
2019-05-29T09:49:55.312Z,5.00
2019-05-29T09:52:24.265Z,6.03
2019-05-29T09:54:56.208Z,8.13
2019-05-29T09:57:25.250Z,5.27
2019-05-29T09:59:56.415Z,3.57
2019-05-29T10:02:24.866Z,3.57
2019-05-29T10:04:56.543Z,4.23
2019-05-29T10:07:26.908Z,6.03
2019-05-29T10:09:57.285Z,2.73
2019-05-29T10:12:26.519Z,4.10
2019-05-29T10:14:56.058Z,3.73
2019-05-29T10:17:26.102Z,4.50
2019-05-29T10:19:56.896Z,1.83
2019-05-29T10:22:25.591Z,3.50
2019-05-29T10:24:56.296Z,5.23
2019-05-29T10:27:25.129Z,3.17
2019-05-29T10:29:54.327Z,3.57
2019-05-29T10:32:26.676Z,6.57
2019-05-29T10:34:56.350Z,3.13
2019-05-29T10:37:25.297Z,4.37
2019-05-29T10:39:57.497Z,2.73
2019-05-29T10:42:26.640Z,8.37
2019-05-29T10:44:55.617Z,3.10
2019-05-29T10:47:27.552Z,5.27
2019-05-29T10:49:57.892Z,1.93
2019-05-29T10:52:26.792Z,3.67
2019-05-29T10:54:58.364Z,3.63
2019-05-29T10:57:30.384Z,3.73
2019-05-29T11:00:06.145Z,5.17
2019-05-29T11:02:35.155Z,4.23
2019-05-29T11:05:04.607Z,3.20
2019-05-29T11:07:33.649Z,5.93
2019-05-29T11:10:02.610Z,3.20
2019-05-29T11:12:31.522Z,7.63
2019-05-29T11:15:00.536Z,6.07
2019-05-29T11:17:29.556Z,3.37
2019-05-29T11:19:58.473Z,5.97
2019-05-29T11:22:27.527Z,3.70
2019-05-29T11:24:58.274Z,4.23
2019-05-29T11:27:27.324Z,3.83
2019-05-29T11:30:01.850Z,6.40
2019-05-29T11:32:30.922Z,3.87
2019-05-29T11:34:59.739Z,3.00
2019-05-29T11:37:28.739Z,5.90
2019-05-29T11:39:58.763Z,4.17
2019-05-29T11:42:28.318Z,2.80
2019-05-29T11:44:57.400Z,3.10
2019-05-29T11:47:26.453Z,4.70
2019-05-29T11:49:55.375Z,7.47
2019-05-29T11:52:26.569Z,4.90
2019-05-29T11:54:59.155Z,4.10
2019-05-29T11:57:25.356Z,4.63
2019-05-29T11:59:54.255Z,4.23
2019-05-29T12:02:25.506Z,6.30
2019-05-29T12:04:55.163Z,3.57
2019-05-29T12:07:24.334Z,3.83
2019-05-29T12:09:53.553Z,3.10
2019-05-29T12:12:22.420Z,7.17
2019-05-29T12:15:00.631Z,6.57
2019-05-29T12:17:21.992Z,4.27
2019-05-29T12:19:54.141Z,5.30
2019-05-29T12:22:23.394Z,3.70
2019-05-29T12:24:52.569Z,5.60
2019-05-29T12:27:21.738Z,7.87
2019-05-29T12:29:50.651Z,3.40
2019-05-29T12:32:19.578Z,3.80
2019-05-29T12:34:53.551Z,7.90
2019-05-29T12:37:19.493Z,2.77
2019-05-29T12:39:48.545Z,3.87
2019-05-29T12:42:17.525Z,4.30
2019-05-29T12:44:46.451Z,4.27
2019-05-29T12:47:15.462Z,3.60
2019-05-29T12:49:47.110Z,3.93
2019-05-29T12:52:16.055Z,4.87
2019-05-29T12:54:45.084Z,5.73
2019-05-29T12:57:14.194Z,4.33
2019-05-29T12:59:43.855Z,5.53
2019-05-29T13:02:15.342Z,4.93
2019-05-29T13:05:06.761Z,4.87
2019-05-29T13:07:15.062Z,2.63
2019-05-29T13:09:46.516Z,2.60
2019-05-29T13:12:18.038Z,3.53
2019-05-29T13:14:47.218Z,4.00
2019-05-29T13:17:18.330Z,2.60
2019-05-29T13:19:46.956Z,2.47
2019-05-29T13:22:16.002Z,7.17
2019-05-29T13:24:45.205Z,5.13
2019-05-29T13:27:16.258Z,4.07
2019-05-29T13:29:45.490Z,4.67
2019-05-29T13:32:14.649Z,4.43
2019-05-29T13:34:43.611Z,6.13
2019-05-29T13:37:15.374Z,4.63
2019-05-29T13:39:44.520Z,4.60
2019-05-29T13:42:13.773Z,4.20
2019-05-29T13:44:43.042Z,2.13
2019-05-29T13:47:12.225Z,5.37
2019-05-29T13:49:41.827Z,4.70
2019-05-29T13:52:16.310Z,2.83
2019-05-29T13:54:45.444Z,6.17
2019-05-29T13:57:14.573Z,3.97
2019-05-29T13:59:43.817Z,4.77
2019-05-29T14:02:12.767Z,3.90
2019-05-29T14:04:41.765Z,6.27
2019-05-29T14:07:10.871Z,2.40
2019-05-29T14:09:39.872Z,3.33
2019-05-29T14:12:09.418Z,4.40
2019-05-29T14:14:38.690Z,4.23
2019-05-29T14:17:08.806Z,2.83
2019-05-29T14:19:42.088Z,2.83
2019-05-29T14:22:11.241Z,6.90
2019-05-29T14:24:40.284Z,2.83
2019-05-29T14:27:09.651Z,6.23
2019-05-29T14:29:38.891Z,4.37
2019-05-29T14:32:09.065Z,4.17
2019-05-29T14:34:38.192Z,1.43
2019-05-29T14:37:07.967Z,7.20
2019-05-29T14:39:37.003Z,4.60
2019-05-29T14:42:06.117Z,2.77
2019-05-29T14:44:38.541Z,6.67
2019-05-29T14:47:07.988Z,4.13
2019-05-29T14:49:39.782Z,3.60
2019-05-29T14:52:11.319Z,2.73
2019-05-29T14:54:42.135Z,4.10
2019-05-29T14:57:22.572Z,5.10
2019-05-29T14:59:41.996Z,3.33
2019-05-29T15:02:21.676Z,7.40
2019-05-29T15:04:44.127Z,7.03
2019-05-29T15:07:14.036Z,4.07
2019-05-29T15:09:43.273Z,5.73
2019-05-29T15:12:12.195Z,4.97
2019-05-29T15:14:44.184Z,5.43
2019-05-29T15:17:13.232Z,2.00
2019-05-29T15:19:42.408Z,2.60
2019-05-29T15:22:11.674Z,3.80
2019-05-29T15:24:56.183Z,4.33
2019-05-29T15:27:12.031Z,4.93
2019-05-29T15:29:44.038Z,3.13
2019-05-29T15:32:16.700Z,5.27
2019-05-29T15:34:45.889Z,6.03
2019-05-29T15:37:16.952Z,4.43
2019-05-29T15:39:45.490Z,6.00
2019-05-29T15:42:15.062Z,4.57
2019-05-29T15:44:44.190Z,3.63
2019-05-29T15:47:13.214Z,4.90
2019-05-29T15:49:42.277Z,5.37
2019-05-29T15:52:11.496Z,7.77
2019-05-29T15:54:40.776Z,3.87
2019-05-29T15:57:10.983Z,5.80
2019-05-29T15:59:40.366Z,3.60
2019-05-29T16:02:09.447Z,4.60
2019-05-29T16:04:41.109Z,3.40
2019-05-29T16:07:11.897Z,3.13
2019-05-29T16:09:41.148Z,2.57
2019-05-29T16:12:10.548Z,2.83
2019-05-29T16:14:39.580Z,5.60
2019-05-29T16:17:08.978Z,3.90
2019-05-29T16:19:40.144Z,3.73
2019-05-29T16:22:08.769Z,5.33
2019-05-29T16:24:37.971Z,5.00
2019-05-29T16:27:08.970Z,4.33
2019-05-29T16:29:37.817Z,5.47
2019-05-29T16:32:06.857Z,5.03
2019-05-29T16:34:35.740Z,5.97
2019-05-29T16:37:04.987Z,7.33
2019-05-29T16:39:33.898Z,4.83
2019-05-29T16:42:02.874Z,5.97
2019-05-29T16:44:35.101Z,5.10
2019-05-29T16:47:06.485Z,5.93
2019-05-29T16:49:35.319Z,4.23
2019-05-29T16:52:05.796Z,3.23
2019-05-29T16:54:34.964Z,4.23
2019-05-29T16:59:53.067Z,3.23
2019-05-29T17:02:21.934Z,4.97
2019-05-29T17:04:54.152Z,3.83
2019-05-29T17:07:24.270Z,4.10
2019-05-29T17:09:53.688Z,6.47
2019-05-29T17:12:22.856Z,7.57
2019-05-29T17:14:51.993Z,12.13
2019-05-29T17:17:22.590Z,4.20
2019-05-29T17:19:51.791Z,6.40
2019-05-29T17:22:21.011Z,4.93
2019-05-29T17:24:50.786Z,3.90
2019-05-29T17:27:21.297Z,7.37
2019-05-29T17:29:50.642Z,4.57
2019-05-29T17:32:21.050Z,4.03
2019-05-29T17:34:50.422Z,5.07
2019-05-29T17:37:20.993Z,3.10
2019-05-29T17:39:50.673Z,3.57
2019-05-29T17:42:20.299Z,6.27
2019-05-29T17:44:49.470Z,2.87
2019-05-29T17:47:21.483Z,3.77
2019-05-29T17:49:50.927Z,2.53
2019-05-29T17:52:19.889Z,5.70
2019-05-29T17:54:49.731Z,4.03
2019-05-29T17:57:19.779Z,6.27
2019-05-29T17:59:48.994Z,5.20
2019-05-29T18:02:18.302Z,4.93
2019-05-29T18:04:47.434Z,7.13
2019-05-29T18:07:16.367Z,12.97
2019-05-29T18:09:45.286Z,25.20
2019-05-29T18:12:14.350Z,15.00
2019-05-29T18:14:43.287Z,5.60
2019-05-29T18:17:12.169Z,6.87
2019-05-29T18:19:41.286Z,8.40
2019-05-29T18:22:10.291Z,8.17
2019-05-29T18:24:39.297Z,7.20
2019-05-29T18:27:08.326Z,9.13
2019-05-29T18:29:37.512Z,7.00
2019-05-29T18:32:06.567Z,7.00
2019-05-29T18:34:35.772Z,5.33
2019-05-29T18:37:05.098Z,5.27
2019-05-29T18:39:34.401Z,4.53
2019-05-29T18:42:03.339Z,3.83
2019-05-29T18:44:33.069Z,7.00
2019-05-29T18:47:05.341Z,6.90
2019-05-29T18:49:34.270Z,6.30
2019-05-29T18:52:03.198Z,3.77
2019-05-29T18:54:35.196Z,5.23
2019-05-29T18:57:15.304Z,4.33
2019-05-29T18:59:34.849Z,5.10
2019-05-29T19:02:03.808Z,4.63
2019-05-29T19:04:33.000Z,3.67
2019-05-29T19:07:02.691Z,4.40
2019-05-29T19:09:32.146Z,7.90
2019-05-29T19:12:02.565Z,6.67
2019-05-29T19:14:34.473Z,5.83
2019-05-29T19:17:04.220Z,4.63
2019-05-29T19:19:33.661Z,5.27
2019-05-29T19:22:04.844Z,5.00
2019-05-29T19:24:34.334Z,6.50
2019-05-29T19:27:03.355Z,4.87
2019-05-29T19:29:34.543Z,8.23
2019-05-29T19:32:03.996Z,6.33
2019-05-29T19:34:33.635Z,5.97
2019-05-29T19:37:03.509Z,4.90
2019-05-29T19:39:32.623Z,5.07
2019-05-29T19:42:02.090Z,9.50
2019-05-29T19:44:32.417Z,5.40
2019-05-29T19:47:01.583Z,8.67
2019-05-29T19:49:30.929Z,4.97
2019-05-29T19:52:00.390Z,4.50
2019-05-29T19:54:35.596Z,4.30
2019-05-29T19:57:05.340Z,5.83
2019-05-29T19:59:37.007Z,4.30
2019-05-29T20:02:07.119Z,7.77
2019-05-29T20:04:36.953Z,7.10
2019-05-29T20:07:06.512Z,7.70
2019-05-29T20:09:35.747Z,6.53
2019-05-29T20:12:05.611Z,7.43
2019-05-29T20:14:35.795Z,8.30
2019-05-29T20:17:04.833Z,7.07
2019-05-29T20:19:36.364Z,6.63
2019-05-29T20:22:04.598Z,6.77
2019-05-29T20:24:34.869Z,6.23
2019-05-29T20:27:06.393Z,9.27
2019-05-29T20:29:36.385Z,4.90
2019-05-29T20:32:05.648Z,5.40
2019-05-29T20:34:34.758Z,5.73
2019-05-29T20:37:03.834Z,7.47
2019-05-29T20:39:33.350Z,6.27
2019-05-29T20:42:05.864Z,9.50
2019-05-29T20:44:34.550Z,8.23
2019-05-29T20:47:03.464Z,6.00
2019-05-29T20:49:33.787Z,4.80
2019-05-29T20:52:08.404Z,7.43
2019-05-29T20:54:39.728Z,6.10
2019-05-29T20:57:12.152Z,6.93
2019-05-29T20:59:42.148Z,6.40
2019-05-29T21:02:11.367Z,9.50
2019-05-29T21:04:40.639Z,4.43
2019-05-29T21:07:09.831Z,10.17
2019-05-29T21:09:39.221Z,7.03
2019-05-29T21:12:11.708Z,3.93
2019-05-29T21:14:44.579Z,5.37
2019-05-29T21:17:13.216Z,6.97
2019-05-29T21:19:42.428Z,7.03
2019-05-29T21:22:11.653Z,5.30
2019-05-29T21:24:40.661Z,4.93
2019-05-29T21:27:12.278Z,6.40
2019-05-29T21:29:45.419Z,5.07
2019-05-29T21:32:14.615Z,7.20
2019-05-29T21:34:43.959Z,8.70
2019-05-29T21:37:15.076Z,5.60
2019-05-29T21:39:44.553Z,5.73
2019-05-29T21:42:13.566Z,7.17
2019-05-29T21:44:43.007Z,7.03
2019-05-29T21:47:11.962Z,7.03
2019-05-29T21:49:45.237Z,10.03
2019-05-29T21:52:16.676Z,10.37
2019-05-29T21:54:45.758Z,11.63
2019-05-29T21:57:14.715Z,8.67
2019-05-29T21:59:43.869Z,10.23
2019-05-29T22:02:13.092Z,11.07
2019-05-29T22:04:42.337Z,8.20
2019-05-29T22:07:11.284Z,7.00
2019-05-29T22:09:40.221Z,9.77
2019-05-29T22:12:09.162Z,9.80
2019-05-29T22:14:38.148Z,10.00
2019-05-29T22:17:07.104Z,9.57
2019-05-29T22:19:38.733Z,12.77
2019-05-29T22:22:07.629Z,9.67
2019-05-29T22:24:36.507Z,6.93
2019-05-29T22:27:05.404Z,8.37
2019-05-29T22:29:37.335Z,9.33
2019-05-29T22:32:06.277Z,7.37
2019-05-29T22:34:35.187Z,10.70
2019-05-29T22:37:04.277Z,10.17
2019-05-29T22:39:35.767Z,10.10
2019-05-29T22:42:04.663Z,6.30
2019-05-29T22:44:33.564Z,9.03
2019-05-29T22:47:02.494Z,11.87
2019-05-29T22:49:31.442Z,8.00
2019-05-29T22:52:02.805Z,6.17
2019-05-29T22:54:31.772Z,9.73
2019-05-29T22:57:00.651Z,8.17
2019-05-29T22:59:32.231Z,7.47
2019-05-29T23:02:00.430Z,8.57
2019-05-29T23:04:29.429Z,10.17
2019-05-29T23:07:02.582Z,9.57
2019-05-29T23:09:31.719Z,9.43
2019-05-29T23:12:00.709Z,12.30
2019-05-29T23:14:29.741Z,18.47
2019-05-29T23:17:03.708Z,23.73
2019-05-29T23:19:32.793Z,16.87
2019-05-29T23:22:02.757Z,12.40
2019-05-29T23:24:32.015Z,14.50
2019-05-29T23:27:01.087Z,10.37
2019-05-29T23:29:30.015Z,11.23
2019-05-29T23:31:59.018Z,10.07
2019-05-29T23:34:28.178Z,13.03
2019-05-29T23:36:57.147Z,14.73
2019-05-29T23:39:25.973Z,12.70
2019-05-29T23:41:55.257Z,19.50
2019-05-29T23:44:24.130Z,16.97
2019-05-29T23:46:53.372Z,18.67
2019-05-29T23:49:22.317Z,16.67
2019-05-29T23:51:51.335Z,19.57
2019-05-29T23:54:20.232Z,19.20
2019-05-29T23:56:52.080Z,15.57
2019-05-29T23:59:21.410Z,12.87
